sensor_id;sensor_type;location;lat;lon;timestamp;temperature;humidity
10788;DHT22;5446;50.826;4.380;2023-03-01T00:01:30;1.10;99.90
10788;DHT22;5446;50.826;4.380;2023-03-01T00:03:57;1.10;99.90
10788;DHT22;5446;50.826;4.380;2023-03-01T00:06:25;1.10;99.90
10788;DHT22;5446;50.826;4.380;2023-03-01T00:08:51;1.00;99.90
10788;DHT22;5446;50.826;4.380;2023-03-01T00:11:22;1.00;99.90
10788;DHT22;5446;50.826;4.380;2023-03-01T00:13:51;1.00;99.90
10788;DHT22;5446;50.826;4.380;2023-03-01T00:16:25;0.90;99.90
10788;DHT22;5446;50.826;4.380;2023-03-01T00:18:51;1.00;99.90
10788;DHT22;5446;50.826;4.380;2023-03-01T00:21:17;0.90;99.90
10788;DHT22;5446;50.826;4.380;2023-03-01T00:23:42;0.90;99.90
10788;DHT22;5446;50.826;4.380;2023-03-01T00:26:11;0.90;99.90
10788;DHT22;5446;50.826;4.380;2023-03-01T00:28:37;0.90;99.90
10788;DHT22;5446;50.826;4.380;2023-03-01T00:31:09;0.80;99.90
10788;DHT22;5446;50.826;4.380;2023-03-01T00:33:35;0.80;99.90
10788;DHT22;5446;50.826;4.380;2023-03-01T00:36:02;0.80;99.90
10788;DHT22;5446;50.826;4.380;2023-03-01T00:38:28;0.80;99.90
10788;DHT22;5446;50.826;4.380;2023-03-01T00:40:54;0.80;99.90
10788;DHT22;5446;50.826;4.380;2023-03-01T00:43:20;0.70;99.90
10788;DHT22;5446;50.826;4.380;2023-03-01T00:45:46;0.70;99.90
10788;DHT22;5446;50.826;4.380;2023-03-01T00:48:12;0.70;99.90
10788;DHT22;5446;50.826;4.380;2023-03-01T00:50:38;0.70;99.90
10788;DHT22;5446;50.826;4.380;2023-03-01T00:53:03;0.70;99.90
10788;DHT22;5446;50.826;4.380;2023-03-01T00:55:30;0.70;99.90
10788;DHT22;5446;50.826;4.380;2023-03-01T00:57:56;0.70;99.90
10788;DHT22;5446;50.826;4.380;2023-03-01T01:00:22;0.70;99.90
10788;DHT22;5446;50.826;4.380;2023-03-01T01:02:48;0.70;99.90
10788;DHT22;5446;50.826;4.380;2023-03-01T01:05:14;0.60;99.90
10788;DHT22;5446;50.826;4.380;2023-03-01T01:07:40;0.60;99.90
10788;DHT22;5446;50.826;4.380;2023-03-01T01:10:06;0.60;99.90
10788;DHT22;5446;50.826;4.380;2023-03-01T01:12:32;0.60;99.90
10788;DHT22;5446;50.826;4.380;2023-03-01T01:14:58;0.60;99.90
10788;DHT22;5446;50.826;4.380;2023-03-01T01:17:24;0.60;99.90
10788;DHT22;5446;50.826;4.380;2023-03-01T01:19:49;0.60;99.90
10788;DHT22;5446;50.826;4.380;2023-03-01T01:22:15;0.50;99.90
10788;DHT22;5446;50.826;4.380;2023-03-01T01:24:41;0.50;99.90
10788;DHT22;5446;50.826;4.380;2023-03-01T01:27:07;0.50;99.90
10788;DHT22;5446;50.826;4.380;2023-03-01T01:29:33;0.40;99.90
10788;DHT22;5446;50.826;4.380;2023-03-01T01:31:58;0.40;99.90
10788;DHT22;5446;50.826;4.380;2023-03-01T01:34:24;0.40;99.90
10788;DHT22;5446;50.826;4.380;2023-03-01T01:36:53;0.40;99.90
10788;DHT22;5446;50.826;4.380;2023-03-01T01:39:20;0.40;99.90
10788;DHT22;5446;50.826;4.380;2023-03-01T01:41:46;0.40;99.90
10788;DHT22;5446;50.826;4.380;2023-03-01T01:44:21;0.40;99.90
10788;DHT22;5446;50.826;4.380;2023-03-01T01:49:47;0.30;99.90
10788;DHT22;5446;50.826;4.380;2023-03-01T01:52:24;0.30;99.90
10788;DHT22;5446;50.826;4.380;2023-03-01T01:55:03;0.30;99.90
10788;DHT22;5446;50.826;4.380;2023-03-01T01:57:42;0.30;99.90
10788;DHT22;5446;50.826;4.380;2023-03-01T02:00:18;0.30;99.90
10788;DHT22;5446;50.826;4.380;2023-03-01T02:02:45;0.30;99.90
10788;DHT22;5446;50.826;4.380;2023-03-01T02:05:26;0.20;99.90
10788;DHT22;5446;50.826;4.380;2023-03-01T02:07:54;0.20;99.90
10788;DHT22;5446;50.826;4.380;2023-03-01T02:10:21;0.20;99.90
10788;DHT22;5446;50.826;4.380;2023-03-01T02:12:48;0.20;99.90
10788;DHT22;5446;50.826;4.380;2023-03-01T02:15:13;0.20;99.90
10788;DHT22;5446;50.826;4.380;2023-03-01T02:17:39;0.20;99.90
10788;DHT22;5446;50.826;4.380;2023-03-01T02:23:22;0.10;99.90
10788;DHT22;5446;50.826;4.380;2023-03-01T02:25:56;0.10;99.90
10788;DHT22;5446;50.826;4.380;2023-03-01T02:30:50;0.10;99.90
10788;DHT22;5446;50.826;4.380;2023-03-01T02:33:36;0.10;99.90
10788;DHT22;5446;50.826;4.380;2023-03-01T02:36:17;0.10;99.90
10788;DHT22;5446;50.826;4.380;2023-03-01T02:38:43;0.00;99.90
10788;DHT22;5446;50.826;4.380;2023-03-01T02:41:13;0.00;99.90
10788;DHT22;5446;50.826;4.380;2023-03-01T02:43:40;0.00;99.90
10788;DHT22;5446;50.826;4.380;2023-03-01T02:46:19;0.00;99.90
10788;DHT22;5446;50.826;4.380;2023-03-01T02:54:08;0.00;99.90
10788;DHT22;5446;50.826;4.380;2023-03-01T02:56:36;-0.10;99.90
10788;DHT22;5446;50.826;4.380;2023-03-01T02:59:02;0.00;99.90
10788;DHT22;5446;50.826;4.380;2023-03-01T03:01:28;-0.10;99.90
10788;DHT22;5446;50.826;4.380;2023-03-01T03:04:08;-0.10;99.90
10788;DHT22;5446;50.826;4.380;2023-03-01T03:06:35;-0.10;99.90
10788;DHT22;5446;50.826;4.380;2023-03-01T03:09:01;-0.10;99.90
10788;DHT22;5446;50.826;4.380;2023-03-01T03:11:27;-0.10;99.90
10788;DHT22;5446;50.826;4.380;2023-03-01T03:13:53;-0.10;99.90
10788;DHT22;5446;50.826;4.380;2023-03-01T03:16:19;-0.10;99.90
10788;DHT22;5446;50.826;4.380;2023-03-01T03:18:45;-0.20;99.90
10788;DHT22;5446;50.826;4.380;2023-03-01T03:21:12;-0.20;99.90
10788;DHT22;5446;50.826;4.380;2023-03-01T03:23:38;-0.20;99.90
10788;DHT22;5446;50.826;4.380;2023-03-01T03:26:04;-0.20;99.90
10788;DHT22;5446;50.826;4.380;2023-03-01T03:28:34;-0.30;99.90
10788;DHT22;5446;50.826;4.380;2023-03-01T03:31:01;-0.30;99.90
10788;DHT22;5446;50.826;4.380;2023-03-01T03:33:30;-0.30;99.90
10788;DHT22;5446;50.826;4.380;2023-03-01T03:35:56;-0.30;99.90
10788;DHT22;5446;50.826;4.380;2023-03-01T03:38:22;-0.30;99.90
10788;DHT22;5446;50.826;4.380;2023-03-01T03:41:02;-0.30;99.90
10788;DHT22;5446;50.826;4.380;2023-03-01T03:43:30;-0.30;99.90
10788;DHT22;5446;50.826;4.380;2023-03-01T03:45:56;-0.40;99.90
10788;DHT22;5446;50.826;4.380;2023-03-01T03:48:23;-0.40;99.90
10788;DHT22;5446;50.826;4.380;2023-03-01T03:50:51;-0.40;99.90
10788;DHT22;5446;50.826;4.380;2023-03-01T03:53:17;-0.40;99.90
10788;DHT22;5446;50.826;4.380;2023-03-01T03:55:43;-0.50;99.90
10788;DHT22;5446;50.826;4.380;2023-03-01T03:58:10;-0.50;99.90
10788;DHT22;5446;50.826;4.380;2023-03-01T04:00:39;-0.50;99.90
10788;DHT22;5446;50.826;4.380;2023-03-01T04:03:05;-0.60;99.90
10788;DHT22;5446;50.826;4.380;2023-03-01T04:05:31;-0.60;99.90
10788;DHT22;5446;50.826;4.380;2023-03-01T04:07:58;-0.60;99.90
10788;DHT22;5446;50.826;4.380;2023-03-01T04:10:31;-0.60;99.90
10788;DHT22;5446;50.826;4.380;2023-03-01T04:12:57;-0.70;99.90
10788;DHT22;5446;50.826;4.380;2023-03-01T04:15:24;-0.70;99.90
10788;DHT22;5446;50.826;4.380;2023-03-01T04:17:52;-0.70;99.90
10788;DHT22;5446;50.826;4.380;2023-03-01T04:20:21;-0.70;99.90
10788;DHT22;5446;50.826;4.380;2023-03-01T04:22:51;-0.70;99.90
10788;DHT22;5446;50.826;4.380;2023-03-01T04:25:17;-0.70;99.90
10788;DHT22;5446;50.826;4.380;2023-03-01T04:27:43;-0.80;99.90
10788;DHT22;5446;50.826;4.380;2023-03-01T04:30:09;-0.80;99.90
10788;DHT22;5446;50.826;4.380;2023-03-01T04:32:35;-0.80;99.90
10788;DHT22;5446;50.826;4.380;2023-03-01T04:35:01;-0.80;99.90
10788;DHT22;5446;50.826;4.380;2023-03-01T04:37:27;-0.80;99.90
10788;DHT22;5446;50.826;4.380;2023-03-01T04:39:53;-0.80;99.90
10788;DHT22;5446;50.826;4.380;2023-03-01T04:42:19;-0.80;99.90
10788;DHT22;5446;50.826;4.380;2023-03-01T04:44:45;-0.80;99.90
10788;DHT22;5446;50.826;4.380;2023-03-01T04:47:12;-0.80;99.90
10788;DHT22;5446;50.826;4.380;2023-03-01T04:49:37;-0.80;99.90
10788;DHT22;5446;50.826;4.380;2023-03-01T04:52:04;-0.80;99.90
10788;DHT22;5446;50.826;4.380;2023-03-01T04:54:32;-0.80;99.90
10788;DHT22;5446;50.826;4.380;2023-03-01T04:56:58;-0.90;99.90
10788;DHT22;5446;50.826;4.380;2023-03-01T04:59:24;-0.90;99.90
10788;DHT22;5446;50.826;4.380;2023-03-01T05:01:54;-0.90;99.90
10788;DHT22;5446;50.826;4.380;2023-03-01T05:04:24;-0.90;99.90
10788;DHT22;5446;50.826;4.380;2023-03-01T05:06:50;-0.90;99.90
10788;DHT22;5446;50.826;4.380;2023-03-01T05:09:16;-0.90;99.90
10788;DHT22;5446;50.826;4.380;2023-03-01T05:11:42;-0.90;99.90
10788;DHT22;5446;50.826;4.380;2023-03-01T05:14:09;-0.90;99.90
10788;DHT22;5446;50.826;4.380;2023-03-01T05:16:36;-1.00;99.90
10788;DHT22;5446;50.826;4.380;2023-03-01T05:19:03;-1.00;99.90
10788;DHT22;5446;50.826;4.380;2023-03-01T05:21:37;-1.00;99.90
10788;DHT22;5446;50.826;4.380;2023-03-01T05:24:24;-1.00;99.90
10788;DHT22;5446;50.826;4.380;2023-03-01T05:26:50;-1.00;99.90
10788;DHT22;5446;50.826;4.380;2023-03-01T05:29:18;-1.00;99.90
10788;DHT22;5446;50.826;4.380;2023-03-01T05:31:54;-1.00;99.90
10788;DHT22;5446;50.826;4.380;2023-03-01T05:36:51;-1.10;99.90
10788;DHT22;5446;50.826;4.380;2023-03-01T05:39:20;-1.10;99.90
10788;DHT22;5446;50.826;4.380;2023-03-01T05:41:47;-1.10;99.90
10788;DHT22;5446;50.826;4.380;2023-03-01T05:44:13;-1.10;99.90
10788;DHT22;5446;50.826;4.380;2023-03-01T05:46:39;-1.10;99.90
10788;DHT22;5446;50.826;4.380;2023-03-01T05:49:04;-1.10;99.90
10788;DHT22;5446;50.826;4.380;2023-03-01T05:51:30;-1.10;99.90
10788;DHT22;5446;50.826;4.380;2023-03-01T05:53:56;-1.10;99.90
10788;DHT22;5446;50.826;4.380;2023-03-01T05:56:22;-1.10;99.90
10788;DHT22;5446;50.826;4.380;2023-03-01T05:58:48;-1.10;99.90
10788;DHT22;5446;50.826;4.380;2023-03-01T06:01:15;-1.10;99.90
10788;DHT22;5446;50.826;4.380;2023-03-01T06:03:40;-1.20;99.90
10788;DHT22;5446;50.826;4.380;2023-03-01T06:06:06;-1.20;99.90
10788;DHT22;5446;50.826;4.380;2023-03-01T06:08:32;-1.20;99.90
10788;DHT22;5446;50.826;4.380;2023-03-01T06:10:58;-1.20;99.90
10788;DHT22;5446;50.826;4.380;2023-03-01T06:13:24;-1.20;99.90
10788;DHT22;5446;50.826;4.380;2023-03-01T06:15:49;-1.20;99.90
10788;DHT22;5446;50.826;4.380;2023-03-01T06:18:15;-1.20;99.90
10788;DHT22;5446;50.826;4.380;2023-03-01T06:20:41;-1.20;99.90
10788;DHT22;5446;50.826;4.380;2023-03-01T06:23:07;-1.20;99.90
10788;DHT22;5446;50.826;4.380;2023-03-01T06:25:33;-1.20;99.90
10788;DHT22;5446;50.826;4.380;2023-03-01T06:27:58;-1.20;99.90
10788;DHT22;5446;50.826;4.380;2023-03-01T06:30:26;-1.20;99.90
10788;DHT22;5446;50.826;4.380;2023-03-01T06:32:52;-1.20;99.90
10788;DHT22;5446;50.826;4.380;2023-03-01T06:35:18;-1.20;99.90
10788;DHT22;5446;50.826;4.380;2023-03-01T06:37:45;-1.20;99.90
10788;DHT22;5446;50.826;4.380;2023-03-01T06:40:12;-1.20;99.90
10788;DHT22;5446;50.826;4.380;2023-03-01T06:42:40;-1.20;99.90
10788;DHT22;5446;50.826;4.380;2023-03-01T06:45:07;-1.10;99.90
10788;DHT22;5446;50.826;4.380;2023-03-01T06:47:33;-1.10;99.90
10788;DHT22;5446;50.826;4.380;2023-03-01T06:50:00;-1.10;99.90
10788;DHT22;5446;50.826;4.380;2023-03-01T06:52:26;-1.10;99.90
10788;DHT22;5446;50.826;4.380;2023-03-01T06:54:52;-1.10;99.90
10788;DHT22;5446;50.826;4.380;2023-03-01T06:57:17;-1.10;99.90
10788;DHT22;5446;50.826;4.380;2023-03-01T06:59:43;-1.10;99.90
10788;DHT22;5446;50.826;4.380;2023-03-01T07:02:12;-1.00;99.90
10788;DHT22;5446;50.826;4.380;2023-03-01T07:04:39;-1.10;99.90
10788;DHT22;5446;50.826;4.380;2023-03-01T07:07:05;-1.10;99.90
10788;DHT22;5446;50.826;4.380;2023-03-01T07:09:31;-1.10;99.90
10788;DHT22;5446;50.826;4.380;2023-03-01T07:11:57;-1.10;99.90
10788;DHT22;5446;50.826;4.380;2023-03-01T07:14:23;-1.00;99.90
10788;DHT22;5446;50.826;4.380;2023-03-01T07:16:53;-1.00;99.90
10788;DHT22;5446;50.826;4.380;2023-03-01T07:19:19;-1.00;99.90
10788;DHT22;5446;50.826;4.380;2023-03-01T07:21:45;-1.00;99.90
10788;DHT22;5446;50.826;4.380;2023-03-01T07:24:11;-1.00;99.90
10788;DHT22;5446;50.826;4.380;2023-03-01T07:26:37;-0.90;99.90
10788;DHT22;5446;50.826;4.380;2023-03-01T07:29:04;-0.90;99.90
10788;DHT22;5446;50.826;4.380;2023-03-01T07:31:30;-0.80;99.90
10788;DHT22;5446;50.826;4.380;2023-03-01T07:33:57;-0.80;99.90
10788;DHT22;5446;50.826;4.380;2023-03-01T07:36:23;-0.80;99.90
10788;DHT22;5446;50.826;4.380;2023-03-01T07:38:49;-0.70;99.90
10788;DHT22;5446;50.826;4.380;2023-03-01T07:41:14;-0.70;99.90
10788;DHT22;5446;50.826;4.380;2023-03-01T07:43:40;-0.70;99.90
10788;DHT22;5446;50.826;4.380;2023-03-01T07:46:06;-0.70;99.90
10788;DHT22;5446;50.826;4.380;2023-03-01T07:48:33;-0.60;99.90
10788;DHT22;5446;50.826;4.380;2023-03-01T07:51:03;-0.50;99.90
10788;DHT22;5446;50.826;4.380;2023-03-01T07:53:29;-0.40;99.90
10788;DHT22;5446;50.826;4.380;2023-03-01T07:58:28;-0.30;99.90
10788;DHT22;5446;50.826;4.380;2023-03-01T08:00:53;-0.40;99.90
10788;DHT22;5446;50.826;4.380;2023-03-01T08:03:19;-0.30;99.90
10788;DHT22;5446;50.826;4.380;2023-03-01T08:05:45;-0.30;99.90
10788;DHT22;5446;50.826;4.380;2023-03-01T08:08:10;-0.30;99.90
10788;DHT22;5446;50.826;4.380;2023-03-01T08:10:36;-0.30;99.90
10788;DHT22;5446;50.826;4.380;2023-03-01T08:13:02;-0.20;99.90
10788;DHT22;5446;50.826;4.380;2023-03-01T08:15:28;-0.10;99.90
10788;DHT22;5446;50.826;4.380;2023-03-01T08:17:54;-0.10;99.90
10788;DHT22;5446;50.826;4.380;2023-03-01T08:20:19;-0.10;99.90
10788;DHT22;5446;50.826;4.380;2023-03-01T08:22:45;-0.10;99.90
10788;DHT22;5446;50.826;4.380;2023-03-01T08:25:11;0.10;99.90
10788;DHT22;5446;50.826;4.380;2023-03-01T08:27:36;0.10;99.90
10788;DHT22;5446;50.826;4.380;2023-03-01T08:30:03;0.10;99.90
10788;DHT22;5446;50.826;4.380;2023-03-01T08:32:32;0.10;99.90
10788;DHT22;5446;50.826;4.380;2023-03-01T08:35:00;0.10;99.90
10788;DHT22;5446;50.826;4.380;2023-03-01T08:37:26;0.10;99.90
10788;DHT22;5446;50.826;4.380;2023-03-01T08:39:51;0.30;99.90
10788;DHT22;5446;50.826;4.380;2023-03-01T08:42:17;0.40;99.90
10788;DHT22;5446;50.826;4.380;2023-03-01T08:44:43;0.40;99.90
10788;DHT22;5446;50.826;4.380;2023-03-01T08:47:08;0.40;99.90
10788;DHT22;5446;50.826;4.380;2023-03-01T08:49:34;0.40;99.90
10788;DHT22;5446;50.826;4.380;2023-03-01T08:52:02;0.40;99.90
10788;DHT22;5446;50.826;4.380;2023-03-01T08:54:27;0.50;99.90
10788;DHT22;5446;50.826;4.380;2023-03-01T08:56:54;0.60;99.90
10788;DHT22;5446;50.826;4.380;2023-03-01T08:59:19;0.60;99.90
10788;DHT22;5446;50.826;4.380;2023-03-01T09:01:45;0.60;99.90
10788;DHT22;5446;50.826;4.380;2023-03-01T09:04:12;0.70;99.90
10788;DHT22;5446;50.826;4.380;2023-03-01T09:06:38;0.70;99.90
10788;DHT22;5446;50.826;4.380;2023-03-01T09:09:05;0.80;99.90
10788;DHT22;5446;50.826;4.380;2023-03-01T09:11:31;0.90;99.90
10788;DHT22;5446;50.826;4.380;2023-03-01T09:13:58;0.90;99.90
10788;DHT22;5446;50.826;4.380;2023-03-01T09:16:24;0.90;99.90
10788;DHT22;5446;50.826;4.380;2023-03-01T09:18:52;1.00;99.90
10788;DHT22;5446;50.826;4.380;2023-03-01T09:21:19;1.00;99.90
10788;DHT22;5446;50.826;4.380;2023-03-01T09:23:47;1.00;99.90
10788;DHT22;5446;50.826;4.380;2023-03-01T09:26:16;1.10;99.90
10788;DHT22;5446;50.826;4.380;2023-03-01T09:28:42;1.20;99.90
10788;DHT22;5446;50.826;4.380;2023-03-01T09:31:08;1.30;99.90
10788;DHT22;5446;50.826;4.380;2023-03-01T09:33:34;1.30;99.90
10788;DHT22;5446;50.826;4.380;2023-03-01T09:36:10;1.40;99.90
10788;DHT22;5446;50.826;4.380;2023-03-01T09:38:36;1.50;99.90
10788;DHT22;5446;50.826;4.380;2023-03-01T09:41:02;1.60;99.90
10788;DHT22;5446;50.826;4.380;2023-03-01T09:44:03;1.80;99.90
10788;DHT22;5446;50.826;4.380;2023-03-01T09:46:22;1.70;99.90
10788;DHT22;5446;50.826;4.380;2023-03-01T09:48:55;1.80;99.90
10788;DHT22;5446;50.826;4.380;2023-03-01T09:51:40;1.80;99.90
10788;DHT22;5446;50.826;4.380;2023-03-01T09:54:09;1.90;99.90
10788;DHT22;5446;50.826;4.380;2023-03-01T09:57:55;1.90;99.90
10788;DHT22;5446;50.826;4.380;2023-03-01T09:59:59;2.10;99.90
10788;DHT22;5446;50.826;4.380;2023-03-01T10:02:57;2.20;99.90
10788;DHT22;5446;50.826;4.380;2023-03-01T10:05:29;2.30;99.90
10788;DHT22;5446;50.826;4.380;2023-03-01T10:08:35;2.40;99.90
10788;DHT22;5446;50.826;4.380;2023-03-01T10:11:05;2.60;99.90
10788;DHT22;5446;50.826;4.380;2023-03-01T10:19:04;2.70;99.90
10788;DHT22;5446;50.826;4.380;2023-03-01T10:21:37;2.80;99.90
10788;DHT22;5446;50.826;4.380;2023-03-01T10:24:16;2.90;99.90
10788;DHT22;5446;50.826;4.380;2023-03-01T10:29:14;3.10;99.90
10788;DHT22;5446;50.826;4.380;2023-03-01T10:31:44;3.00;99.90
10788;DHT22;5446;50.826;4.380;2023-03-01T10:41:16;3.20;99.90
10788;DHT22;5446;50.826;4.380;2023-03-01T10:43:46;3.20;99.90
10788;DHT22;5446;50.826;4.380;2023-03-01T10:46:31;3.10;99.90
10788;DHT22;5446;50.826;4.380;2023-03-01T10:49:18;3.30;99.90
10788;DHT22;5446;50.826;4.380;2023-03-01T10:51:47;3.30;99.90
10788;DHT22;5446;50.826;4.380;2023-03-01T10:54:29;3.30;99.90
10788;DHT22;5446;50.826;4.380;2023-03-01T10:56:57;3.30;99.90
10788;DHT22;5446;50.826;4.380;2023-03-01T10:59:30;3.40;99.90
10788;DHT22;5446;50.826;4.380;2023-03-01T11:02:15;3.50;99.90
10788;DHT22;5446;50.826;4.380;2023-03-01T11:10:18;3.60;99.90
10788;DHT22;5446;50.826;4.380;2023-03-01T11:12:44;3.60;99.90
10788;DHT22;5446;50.826;4.380;2023-03-01T11:15:21;3.70;99.90
10788;DHT22;5446;50.826;4.380;2023-03-01T11:17:47;3.70;99.90
10788;DHT22;5446;50.826;4.380;2023-03-01T11:22:53;3.80;99.90
10788;DHT22;5446;50.826;4.380;2023-03-01T11:25:25;3.70;99.90
10788;DHT22;5446;50.826;4.380;2023-03-01T11:27:52;3.90;99.90
10788;DHT22;5446;50.826;4.380;2023-03-01T11:35:55;4.20;99.90
10788;DHT22;5446;50.826;4.380;2023-03-01T11:38:25;4.10;99.90
10788;DHT22;5446;50.826;4.380;2023-03-01T12:20:38;4.90;99.90
10788;DHT22;5446;50.826;4.380;2023-03-01T12:34:11;5.00;99.90
10788;DHT22;5446;50.826;4.380;2023-03-01T12:50:21;5.20;99.90
10788;DHT22;5446;50.826;4.380;2023-03-01T12:52:55;5.30;99.90
10788;DHT22;5446;50.826;4.380;2023-03-01T12:55:34;5.20;99.90
10788;DHT22;5446;50.826;4.380;2023-03-01T13:03:20;5.30;99.90
10788;DHT22;5446;50.826;4.380;2023-03-01T13:08:47;5.30;99.90
10788;DHT22;5446;50.826;4.380;2023-03-01T13:11:21;5.40;99.90
10788;DHT22;5446;50.826;4.380;2023-03-01T13:13:48;5.50;99.90
10788;DHT22;5446;50.826;4.380;2023-03-01T13:16:40;5.60;99.90
10788;DHT22;5446;50.826;4.380;2023-03-01T13:19:36;5.60;99.90
10788;DHT22;5446;50.826;4.380;2023-03-01T13:22:31;5.50;99.90
10788;DHT22;5446;50.826;4.380;2023-03-01T13:25:10;5.50;99.90
10788;DHT22;5446;50.826;4.380;2023-03-01T13:27:37;5.60;99.90
10788;DHT22;5446;50.826;4.380;2023-03-01T13:32:44;5.70;99.90
10788;DHT22;5446;50.826;4.380;2023-03-01T13:37:44;5.50;99.90
10788;DHT22;5446;50.826;4.380;2023-03-01T13:42:51;5.70;99.90
10788;DHT22;5446;50.826;4.380;2023-03-01T13:45:39;5.70;99.90
10788;DHT22;5446;50.826;4.380;2023-03-01T13:50:49;5.90;99.90
10788;DHT22;5446;50.826;4.380;2023-03-01T13:53:19;6.00;99.90
10788;DHT22;5446;50.826;4.380;2023-03-01T13:55:58;6.00;99.90
10788;DHT22;5446;50.826;4.380;2023-03-01T13:58:32;5.90;99.90
10788;DHT22;5446;50.826;4.380;2023-03-01T14:01:04;5.80;99.90
10788;DHT22;5446;50.826;4.380;2023-03-01T14:03:32;5.70;99.90
10788;DHT22;5446;50.826;4.380;2023-03-01T14:06:06;5.70;99.90
10788;DHT22;5446;50.826;4.380;2023-03-01T14:08:34;5.70;99.90
10788;DHT22;5446;50.826;4.380;2023-03-01T14:19:33;6.10;99.90
10788;DHT22;5446;50.826;4.380;2023-03-01T14:22:28;6.10;99.90
10788;DHT22;5446;50.826;4.380;2023-03-01T14:25:05;6.10;99.90
10788;DHT22;5446;50.826;4.380;2023-03-01T14:27:39;6.10;99.90
10788;DHT22;5446;50.826;4.380;2023-03-01T14:32:39;6.10;99.90
10788;DHT22;5446;50.826;4.380;2023-03-01T14:35:29;6.20;99.90
10788;DHT22;5446;50.826;4.380;2023-03-01T14:37:55;6.20;99.90
10788;DHT22;5446;50.826;4.380;2023-03-01T14:43:10;6.20;99.90
10788;DHT22;5446;50.826;4.380;2023-03-01T14:45:37;6.30;99.90
10788;DHT22;5446;50.826;4.380;2023-03-01T14:48:04;6.20;99.90
10788;DHT22;5446;50.826;4.380;2023-03-01T14:50:35;6.10;99.90
10788;DHT22;5446;50.826;4.380;2023-03-01T14:53:04;6.10;99.90
10788;DHT22;5446;50.826;4.380;2023-03-01T14:55:36;6.20;99.90
10788;DHT22;5446;50.826;4.380;2023-03-01T14:58:05;6.20;99.90
10788;DHT22;5446;50.826;4.380;2023-03-01T15:00:33;6.20;99.90
10788;DHT22;5446;50.826;4.380;2023-03-01T15:03:26;6.20;99.90
10788;DHT22;5446;50.826;4.380;2023-03-01T15:05:53;6.30;99.90
10788;DHT22;5446;50.826;4.380;2023-03-01T15:08:23;6.40;99.90
10788;DHT22;5446;50.826;4.380;2023-03-01T15:11:01;6.50;99.90
10788;DHT22;5446;50.826;4.380;2023-03-01T15:13:33;6.30;99.90
10788;DHT22;5446;50.826;4.380;2023-03-01T15:16:50;6.20;99.90
10788;DHT22;5446;50.826;4.380;2023-03-01T15:19:06;6.20;99.90
10788;DHT22;5446;50.826;4.380;2023-03-01T15:21:33;6.20;99.90
10788;DHT22;5446;50.826;4.380;2023-03-01T15:26:59;6.30;99.90
10788;DHT22;5446;50.826;4.380;2023-03-01T15:29:32;6.30;99.90
10788;DHT22;5446;50.826;4.380;2023-03-01T15:34:48;6.40;99.90
10788;DHT22;5446;50.826;4.380;2023-03-01T15:37:54;6.50;99.90
10788;DHT22;5446;50.826;4.380;2023-03-01T15:40:26;6.50;99.90
10788;DHT22;5446;50.826;4.380;2023-03-01T15:42:59;6.40;99.90
10788;DHT22;5446;50.826;4.380;2023-03-01T15:45:27;6.30;99.90
10788;DHT22;5446;50.826;4.380;2023-03-01T15:47:54;6.40;99.90
10788;DHT22;5446;50.826;4.380;2023-03-01T15:50:30;6.40;99.90
10788;DHT22;5446;50.826;4.380;2023-03-01T15:52:59;6.40;99.90
10788;DHT22;5446;50.826;4.380;2023-03-01T15:55:28;6.30;99.90
10788;DHT22;5446;50.826;4.380;2023-03-01T15:58:14;6.30;99.90
10788;DHT22;5446;50.826;4.380;2023-03-01T16:00:41;6.30;99.90
10788;DHT22;5446;50.826;4.380;2023-03-01T16:03:09;6.30;99.90
10788;DHT22;5446;50.826;4.380;2023-03-01T16:05:37;6.30;99.90
10788;DHT22;5446;50.826;4.380;2023-03-01T16:08:04;6.30;99.90
10788;DHT22;5446;50.826;4.380;2023-03-01T16:10:31;6.30;99.90
10788;DHT22;5446;50.826;4.380;2023-03-01T16:12:58;6.40;99.90
10788;DHT22;5446;50.826;4.380;2023-03-01T16:15:29;6.30;99.90
10788;DHT22;5446;50.826;4.380;2023-03-01T16:17:55;6.30;99.90
10788;DHT22;5446;50.826;4.380;2023-03-01T16:20:24;6.30;99.90
10788;DHT22;5446;50.826;4.380;2023-03-01T16:22:50;6.30;99.90
10788;DHT22;5446;50.826;4.380;2023-03-01T16:25:19;6.20;99.90
10788;DHT22;5446;50.826;4.380;2023-03-01T16:27:47;6.20;99.90
10788;DHT22;5446;50.826;4.380;2023-03-01T16:30:14;6.20;99.90
10788;DHT22;5446;50.826;4.380;2023-03-01T16:32:42;6.20;99.90
10788;DHT22;5446;50.826;4.380;2023-03-01T16:35:10;6.20;99.90
10788;DHT22;5446;50.826;4.380;2023-03-01T16:37:36;6.20;99.90
10788;DHT22;5446;50.826;4.380;2023-03-01T16:40:11;6.20;99.90
10788;DHT22;5446;50.826;4.380;2023-03-01T16:42:42;6.20;99.90
10788;DHT22;5446;50.826;4.380;2023-03-01T16:45:08;6.20;99.90
10788;DHT22;5446;50.826;4.380;2023-03-01T16:47:34;6.20;99.90
10788;DHT22;5446;50.826;4.380;2023-03-01T16:50:00;6.20;99.90
10788;DHT22;5446;50.826;4.380;2023-03-01T16:52:26;6.20;99.90
10788;DHT22;5446;50.826;4.380;2023-03-01T16:54:52;6.20;99.90
10788;DHT22;5446;50.826;4.380;2023-03-01T16:57:17;6.20;99.90
10788;DHT22;5446;50.826;4.380;2023-03-01T16:59:43;6.10;99.90
10788;DHT22;5446;50.826;4.380;2023-03-01T17:02:13;6.10;99.90
10788;DHT22;5446;50.826;4.380;2023-03-01T17:04:41;6.00;99.90
10788;DHT22;5446;50.826;4.380;2023-03-01T17:07:07;6.00;99.90
10788;DHT22;5446;50.826;4.380;2023-03-01T17:09:36;5.90;99.90
10788;DHT22;5446;50.826;4.380;2023-03-01T17:12:03;5.80;99.90
10788;DHT22;5446;50.826;4.380;2023-03-01T17:14:29;5.80;99.90
10788;DHT22;5446;50.826;4.380;2023-03-01T17:16:55;5.70;99.90
10788;DHT22;5446;50.826;4.380;2023-03-01T17:19:20;5.70;99.90
10788;DHT22;5446;50.826;4.380;2023-03-01T17:21:48;5.70;99.90
10788;DHT22;5446;50.826;4.380;2023-03-01T17:24:13;5.60;99.90
10788;DHT22;5446;50.826;4.380;2023-03-01T17:26:39;5.50;99.90
10788;DHT22;5446;50.826;4.380;2023-03-01T17:29:06;5.50;99.90
10788;DHT22;5446;50.826;4.380;2023-03-01T17:31:32;5.40;99.90
10788;DHT22;5446;50.826;4.380;2023-03-01T17:33:58;5.40;99.90
10788;DHT22;5446;50.826;4.380;2023-03-01T17:36:24;5.40;99.90
10788;DHT22;5446;50.826;4.380;2023-03-01T17:38:51;5.30;99.90
10788;DHT22;5446;50.826;4.380;2023-03-01T17:41:17;5.30;99.90
10788;DHT22;5446;50.826;4.380;2023-03-01T17:43:46;5.30;99.90
10788;DHT22;5446;50.826;4.380;2023-03-01T17:46:12;5.20;99.90
10788;DHT22;5446;50.826;4.380;2023-03-01T17:48:38;5.20;99.90
10788;DHT22;5446;50.826;4.380;2023-03-01T17:51:11;5.10;99.90
10788;DHT22;5446;50.826;4.380;2023-03-01T17:53:37;5.10;99.90
10788;DHT22;5446;50.826;4.380;2023-03-01T17:56:04;5.00;99.90
10788;DHT22;5446;50.826;4.380;2023-03-01T17:58:31;5.00;99.90
10788;DHT22;5446;50.826;4.380;2023-03-01T18:01:07;4.90;99.90
10788;DHT22;5446;50.826;4.380;2023-03-01T18:03:32;4.90;99.90
10788;DHT22;5446;50.826;4.380;2023-03-01T18:05:58;4.80;99.90
10788;DHT22;5446;50.826;4.380;2023-03-01T18:08:24;4.90;99.90
10788;DHT22;5446;50.826;4.380;2023-03-01T18:10:57;4.80;99.90
10788;DHT22;5446;50.826;4.380;2023-03-01T18:13:23;4.80;99.90
10788;DHT22;5446;50.826;4.380;2023-03-01T18:15:48;4.70;99.90
10788;DHT22;5446;50.826;4.380;2023-03-01T18:18:14;4.70;99.90
10788;DHT22;5446;50.826;4.380;2023-03-01T18:20:40;4.70;99.90
10788;DHT22;5446;50.826;4.380;2023-03-01T18:23:06;4.70;99.90
10788;DHT22;5446;50.826;4.380;2023-03-01T18:25:31;4.70;99.90
10788;DHT22;5446;50.826;4.380;2023-03-01T18:27:58;4.70;99.90
10788;DHT22;5446;50.826;4.380;2023-03-01T18:30:24;4.60;99.90
10788;DHT22;5446;50.826;4.380;2023-03-01T18:32:49;4.50;99.90
10788;DHT22;5446;50.826;4.380;2023-03-01T18:35:21;4.50;99.90
10788;DHT22;5446;50.826;4.380;2023-03-01T18:37:48;4.60;99.90
10788;DHT22;5446;50.826;4.380;2023-03-01T18:40:14;4.50;99.90